Torreon, Mexico

3:33 PM CST on February 27, 2017 (GMT -0600)
ME8718 | | Change Station

Elev 3640 ft 25.59 °N, 103.40 °W | Updated 6 minutes ago

Partly Cloudy
Partly Cloudy
87.0 °F
Feels Like 83 °F
N
3.0
Wind Variable Wind from ENE

Today
High -- | Low -- °F
--% Chance of Precip.
Yesterday
High -- | Low -- °F
Precip. -- in
Pressure 29.73 in
Visibility 15.0 miles
Clouds Few 12000 ft
Few 20000 ft
Heat Index 83 °F
Dew Point 24 °F
Humidity 10%
Rainfall in
Snow Depth Not available.
7:18 AM 6:54 PM
New Moon, 2% visible
METAR MMTC 272046Z 08006KT 15SM FEW120 FEW200 29/M06 A2998 RMK SLP066 55038 913 8/072
Pressure 29.73 in
Visibility 15.0 miles
Clouds Few 12000 ft
Few 20000 ft
Heat Index 83 °F
Dew Point 24 °F
Humidity 10%
Rainfall in
Snow Depth Not available.
7:18 AM 6:54 PM
New Moon, 2% visible
METAR MMTC 272046Z 08006KT 15SM FEW120 FEW200 29/M06 A2998 RMK SLP066 55038 913 8/072

Get Your Daily Forecast Email!

Thanks for signing up!

Be on the lookout for a verification email in your inbox.

You'll start receiving the daily forecast at 8 AM.

×

10-Day Weather Forecast

No radar image for this location.
×

Almanac

Astronomy

Feb. 27, 2017 Rise Set
Actual Time
Civil Twilight
Nautical Twilight
Astronomical Twilight
Moon
Length of Visible Light
Length of Day
Tomorrow will be .
, % of the Moon is Illuminated

Today's Extremes

Country Highs Country Lows

Community

WunderPhotos

Upload Photos

1,962,540 photos uploaded!

WunderBlog® & News

Nearby

Air Quality

  Air Quality AQ Index Pollutant
Not available.

Snow Depth

Station Depth Elevation

Earthquake Activity

City Distance Mag. Time & Date
Minimum magnitude displayed is 2.5.

Coastal Water Temperatures

Place Temperature

Stations

Nearby Weather Stations

Station Location Temp. Windchill Dew Point Humidity Wind Precip. Elev Updated Type